createdAt,value
2023-01-13T00:00:03.366Z,98937.03
2023-01-13T00:02:38.875Z,98945.69
2023-01-13T00:05:07.168Z,98948.25
2023-01-13T00:07:34.198Z,98944.81
2023-01-13T00:10:01.126Z,98937.88
2023-01-13T00:12:28.066Z,98941.25
2023-01-13T00:14:55.152Z,98940.38
2023-01-13T00:17:23.055Z,98936.06
2023-01-13T00:19:50.098Z,98926.53
2023-01-13T00:22:17.051Z,98918.72
2023-01-13T00:24:43.945Z,98916.06
2023-01-13T00:27:11.113Z,98920.41
2023-01-13T00:29:38.019Z,98912.59
2023-01-13T00:32:05.125Z,98914.31
2023-01-13T00:34:32.059Z,98915.13
2023-01-13T00:36:59.110Z,98910.78
2023-01-13T00:39:26.072Z,98908.28
2023-01-13T00:42:11.766Z,98914.22
2023-01-13T00:44:38.693Z,98912.44
2023-01-13T00:47:05.600Z,98910.75
2023-01-13T00:49:32.571Z,98906.41
2023-01-13T00:51:59.465Z,98902.09
2023-01-13T00:54:26.538Z,98901.31
2023-01-13T00:56:53.427Z,98891.03
2023-01-13T00:59:20.350Z,98885.03
2023-01-13T01:01:47.348Z,98877.22
2023-01-13T01:04:14.343Z,98879.00
2023-01-13T01:06:41.378Z,98862.63
2023-01-13T01:09:08.354Z,98858.34
2023-01-13T01:11:35.374Z,98860.13
2023-01-13T01:14:04.139Z,98859.25
2023-01-13T01:16:32.759Z,98856.72
2023-01-13T01:19:00.387Z,98851.56
2023-01-13T01:21:28.700Z,98854.16
2023-01-13T01:23:55.680Z,98846.34
2023-01-13T01:26:24.615Z,98841.97
2023-01-13T01:28:51.991Z,98841.91
2023-01-13T01:31:21.475Z,98838.44
2023-01-13T01:33:49.310Z,98833.25
2023-01-13T01:36:18.942Z,98825.44
2023-01-13T01:38:46.460Z,98827.97
2023-01-13T01:41:19.224Z,98820.19
2023-01-13T01:44:03.160Z,98822.78
2023-01-13T01:46:40.283Z,98818.41
2023-01-13T01:49:14.464Z,98813.25
2023-01-13T01:51:49.335Z,98811.47
2023-01-13T01:54:21.908Z,98808.84
2023-01-13T01:56:49.327Z,98798.47
2023-01-13T01:59:16.475Z,98808.88
2023-01-13T02:01:44.270Z,98798.56
2023-01-13T02:04:19.773Z,98792.53
2023-01-13T02:06:47.793Z,98786.47
2023-01-13T02:09:15.208Z,98793.44
2023-01-13T02:12:00.498Z,98780.53
2023-01-13T02:14:28.781Z,98788.44
2023-01-13T02:17:14.190Z,98782.34
2023-01-13T02:20:12.019Z,98782.34
2023-01-13T02:22:53.909Z,98779.81
2023-01-13T02:25:58.313Z,98773.75
2023-01-13T02:29:12.062Z,98768.53
2023-01-13T02:31:43.599Z,98766.03
2023-01-13T02:34:32.893Z,98765.19
2023-01-13T02:37:15.198Z,98761.75
2023-01-13T02:39:49.379Z,98757.34
2023-01-13T02:42:44.586Z,98760.84
2023-01-13T02:45:26.876Z,98757.31
2023-01-13T02:47:56.493Z,98751.28
2023-01-13T02:50:31.333Z,98750.38
2023-01-13T02:53:01.216Z,98745.25
2023-01-13T02:55:54.770Z,98746.22
2023-01-13T02:58:24.859Z,98738.41
2023-01-13T03:00:52.172Z,98740.06
2023-01-13T03:03:19.521Z,98736.56
2023-01-13T03:05:48.445Z,98739.16
2023-01-13T03:08:47.869Z,98734.91
2023-01-13T03:11:16.679Z,98728.75
2023-01-13T03:14:02.598Z,98730.47
2023-01-13T03:16:40.421Z,98729.63
2023-01-13T03:19:20.665Z,98736.53
2023-01-13T03:21:47.613Z,98732.13
2023-01-13T03:24:18.272Z,98733.88
2023-01-13T03:27:16.058Z,98734.69
2023-01-13T03:29:45.622Z,98729.50
2023-01-13T03:32:24.754Z,98723.47
2023-01-13T03:34:59.311Z,98720.88
2023-01-13T03:37:31.102Z,98724.31
2023-01-13T03:39:59.350Z,98720.75
2023-01-13T03:42:28.561Z,98715.56
2023-01-13T03:44:59.173Z,98718.22
2023-01-13T03:47:43.160Z,98712.25
2023-01-13T03:50:15.332Z,98705.31
2023-01-13T03:52:55.224Z,98714.75
2023-01-13T03:55:44.182Z,98707.91
2023-01-13T03:58:19.931Z,98711.31
2023-01-13T04:01:07.570Z,98707.81
2023-01-13T04:03:41.638Z,98709.56
2023-01-13T04:06:24.200Z,98715.59
2023-01-13T04:08:55.963Z,98697.41
2023-01-13T04:11:29.914Z,98692.25
2023-01-13T04:13:57.301Z,98689.66
2023-01-13T04:16:24.355Z,98692.22
2023-01-13T04:18:51.493Z,98693.94
2023-01-13T04:21:18.471Z,98693.88
2023-01-13T04:23:45.870Z,98685.22
2023-01-13T04:26:12.733Z,98680.91
2023-01-13T04:28:40.864Z,98686.09
2023-01-13T04:31:07.906Z,98687.81
2023-01-13T04:33:34.842Z,98690.38
2023-01-13T04:36:01.759Z,98680.84
2023-01-13T04:38:28.647Z,98679.06
2023-01-13T04:40:55.633Z,98682.50
2023-01-13T04:43:22.673Z,98680.75
2023-01-13T04:45:49.702Z,98684.19
2023-01-13T04:48:16.612Z,98685.03
2023-01-13T04:50:43.594Z,98685.94
2023-01-13T04:53:10.472Z,98685.94
2023-01-13T04:55:37.433Z,98689.38
2023-01-13T04:58:06.631Z,98690.25
2023-01-13T05:00:34.135Z,98683.28
2023-01-13T05:03:01.380Z,98688.47
2023-01-13T05:05:29.333Z,98686.69
2023-01-13T05:07:57.320Z,98685.81
2023-01-13T05:10:24.319Z,98690.09
2023-01-13T05:13:09.658Z,98690.94
2023-01-13T05:15:55.348Z,98694.34
2023-01-13T05:18:22.440Z,98684.81
2023-01-13T05:20:50.233Z,98688.28
2023-01-13T05:23:35.739Z,98692.59
2023-01-13T05:26:02.859Z,98691.69
2023-01-13T05:28:34.198Z,98690.00
2023-01-13T05:31:01.592Z,98693.47
2023-01-13T05:33:28.670Z,98698.63
2023-01-13T05:35:55.669Z,98694.28
2023-01-13T05:38:22.561Z,98700.38
2023-01-13T05:41:08.233Z,98699.53
2023-01-13T05:43:35.292Z,98704.72
2023-01-13T05:46:08.364Z,98703.97
2023-01-13T05:48:37.223Z,98707.34
2023-01-13T05:51:06.068Z,98712.50
2023-01-13T05:53:33.381Z,98711.59
2023-01-13T05:56:00.548Z,98721.09
2023-01-13T05:58:28.315Z,98725.38
2023-01-13T06:01:02.992Z,98725.38
2023-01-13T06:03:30.184Z,98717.50
2023-01-13T06:05:59.559Z,98724.28
2023-01-13T06:08:26.675Z,98733.81
2023-01-13T06:10:53.752Z,98720.00
2023-01-13T06:13:20.964Z,98727.78
2023-01-13T06:15:48.016Z,98733.81
2023-01-13T06:18:15.137Z,98758.81
2023-01-13T06:20:41.971Z,98751.94
2023-01-13T06:23:12.283Z,98740.66
2023-01-13T06:25:40.760Z,98740.66
2023-01-13T06:28:08.145Z,98738.06
2023-01-13T06:30:40.063Z,98739.88
2023-01-13T06:33:11.267Z,98751.03
2023-01-13T06:35:39.043Z,98746.69
2023-01-13T06:38:09.596Z,98752.78
2023-01-13T06:40:36.857Z,98750.09
2023-01-13T06:43:17.026Z,98756.16
2023-01-13T06:45:50.886Z,98758.75
2023-01-13T06:48:19.313Z,98749.19
2023-01-13T06:50:46.735Z,98760.47
2023-01-13T06:53:14.924Z,98763.91
2023-01-13T06:55:41.835Z,98750.94
2023-01-13T06:58:08.985Z,98762.19
2023-01-13T07:00:37.413Z,98754.47
2023-01-13T07:03:18.072Z,98762.28
2023-01-13T07:05:53.878Z,98762.22
2023-01-13T07:08:22.143Z,98760.47
2023-01-13T07:10:49.972Z,98765.69
2023-01-13T07:13:37.920Z,98763.91
2023-01-13T07:16:07.730Z,98761.38
2023-01-13T07:18:35.554Z,98760.47
2023-01-13T07:21:08.343Z,98768.28
2023-01-13T07:23:40.217Z,98771.72
2023-01-13T07:26:08.784Z,98775.22
2023-01-13T07:28:36.233Z,98777.81
2023-01-13T07:31:03.501Z,98780.47
2023-01-13T07:33:33.583Z,98784.78
2023-01-13T07:36:03.943Z,98783.94
2023-01-13T07:38:32.289Z,98780.47
2023-01-13T07:41:19.412Z,98781.28
2023-01-13T07:43:46.774Z,98781.28
2023-01-13T07:46:14.210Z,98782.13
2023-01-13T07:48:41.607Z,98777.75
2023-01-13T07:51:10.490Z,98787.25
2023-01-13T07:53:38.171Z,98784.63
2023-01-13T07:56:06.795Z,98789.78
2023-01-13T07:58:35.321Z,98795.81
2023-01-13T08:01:09.051Z,98802.72
2023-01-13T08:03:36.224Z,98797.53
2023-01-13T08:06:03.289Z,98792.34
2023-01-13T08:08:30.144Z,98793.22
2023-01-13T08:11:01.361Z,98797.53
2023-01-13T08:13:28.403Z,98796.59
2023-01-13T08:16:01.413Z,98798.31
2023-01-13T08:18:28.712Z,98803.41
2023-01-13T08:20:56.158Z,98798.13
2023-01-13T08:23:23.599Z,98800.66
2023-01-13T08:25:50.638Z,98808.41
2023-01-13T08:28:17.754Z,98806.63
2023-01-13T08:30:45.030Z,98804.88
2023-01-13T08:33:13.078Z,98796.25
2023-01-13T08:35:41.754Z,98790.16
2023-01-13T08:38:09.277Z,98797.03
2023-01-13T08:40:36.743Z,98806.56
2023-01-13T08:43:04.021Z,98808.31
2023-01-13T08:45:31.069Z,98818.66
2023-01-13T08:47:58.863Z,98822.09
2023-01-13T08:50:25.967Z,98819.47
2023-01-13T08:52:53.263Z,98829.84
2023-01-13T08:55:20.300Z,98832.44
2023-01-13T08:57:47.259Z,98831.66
2023-01-13T09:00:15.261Z,98842.84
2023-01-13T09:02:42.284Z,98829.75
2023-01-13T09:05:10.677Z,98828.00
2023-01-13T09:07:38.872Z,98838.25
2023-01-13T09:10:08.100Z,98828.59
2023-01-13T09:12:54.207Z,98829.34
2023-01-13T09:15:21.989Z,98832.81
2023-01-13T09:17:48.961Z,98836.25
2023-01-13T09:20:16.188Z,98834.56
2023-01-13T09:22:43.142Z,98835.41
2023-01-13T09:25:10.465Z,98836.31
2023-01-13T09:27:37.459Z,98837.16
2023-01-13T09:30:05.515Z,98832.00
2023-01-13T09:32:32.896Z,98836.34
2023-01-13T09:35:03.201Z,98848.50
2023-01-13T09:37:34.352Z,98844.22
2023-01-13T09:40:02.665Z,98834.75
2023-01-13T09:43:21.723Z,98846.06
2023-01-13T09:45:56.521Z,98844.25
2023-01-13T09:48:30.484Z,98851.16
2023-01-13T09:51:14.600Z,98845.84
2023-01-13T09:53:49.925Z,98847.56
2023-01-13T09:56:17.132Z,98844.81
2023-01-13T09:58:45.920Z,98842.16
2023-01-13T10:01:40.885Z,98841.31
2023-01-13T10:04:12.812Z,98842.06
2023-01-13T10:06:45.264Z,98840.19
2023-01-13T10:10:09.268Z,98841.91
2023-01-13T10:12:56.282Z,98827.94
2023-01-13T10:15:25.981Z,98837.50
2023-01-13T10:18:07.613Z,98848.66
2023-01-13T10:20:54.962Z,98837.25
2023-01-13T10:23:41.159Z,98846.59
2023-01-13T10:26:31.037Z,98838.59
2023-01-13T10:28:58.439Z,98841.91
2023-01-13T10:31:26.208Z,98841.91
2023-01-13T10:34:06.325Z,98837.34
2023-01-13T10:36:33.474Z,98833.44
2023-01-13T10:39:15.172Z,98843.56
2023-01-13T10:41:42.172Z,98828.81
2023-01-13T10:44:19.147Z,98829.06
2023-01-13T10:46:59.435Z,98820.56
2023-01-13T10:49:28.122Z,98815.47
2023-01-13T10:51:55.147Z,98810.41
2023-01-13T10:54:23.814Z,98800.13
2023-01-13T10:57:16.208Z,98800.16
2023-01-13T10:59:44.071Z,98800.03
2023-01-13T11:02:25.333Z,98793.53
2023-01-13T11:04:53.406Z,98798.81
2023-01-13T11:07:41.366Z,98809.75
2023-01-13T11:10:27.908Z,98808.94
2023-01-13T11:13:14.806Z,98804.81
2023-01-13T11:16:18.535Z,98799.59
2023-01-13T11:19:17.960Z,98803.16
2023-01-13T11:21:55.562Z,98805.22
2023-01-13T11:24:27.883Z,98814.97
2023-01-13T11:27:11.883Z,98816.75
2023-01-13T11:29:44.168Z,98813.16
2023-01-13T11:32:18.936Z,98805.50
2023-01-13T11:34:52.677Z,98809.06
2023-01-13T11:37:31.785Z,98812.63
2023-01-13T11:40:13.041Z,98813.44
2023-01-13T11:42:54.690Z,98830.50
2023-01-13T11:45:24.909Z,98829.50
2023-01-13T11:47:54.172Z,98829.47
2023-01-13T11:50:35.539Z,98824.28
2023-01-13T11:53:44.440Z,98834.69
2023-01-13T11:56:29.862Z,98828.63
2023-01-13T11:59:03.954Z,98827.00
2023-01-13T12:01:40.967Z,98841.91
2023-01-13T12:04:27.822Z,98848.84
2023-01-13T12:07:14.492Z,98849.69
2023-01-13T12:10:05.110Z,98849.69
2023-01-13T12:12:43.973Z,98831.38
2023-01-13T12:15:20.447Z,98830.50
2023-01-13T12:17:55.928Z,98818.28
2023-01-13T12:20:40.295Z,98809.75
2023-01-13T12:23:36.246Z,98807.94
2023-01-13T12:26:16.245Z,98820.16
2023-01-13T12:29:03.581Z,98823.53
2023-01-13T12:31:32.907Z,98827.78
2023-01-13T12:34:02.601Z,98849.50
2023-01-13T12:36:52.939Z,98841.91
2023-01-13T12:39:53.014Z,98832.53
2023-01-13T12:42:52.505Z,98828.41
2023-01-13T12:45:22.146Z,98815.47
2023-01-13T12:47:49.304Z,98807.81
2023-01-13T12:50:21.961Z,98812.19
2023-01-13T12:52:50.352Z,98830.41
2023-01-13T12:55:22.283Z,98844.28
2023-01-13T12:58:11.113Z,98828.75
2023-01-13T13:00:41.116Z,98838.31
2023-01-13T13:03:10.813Z,98844.38
2023-01-13T13:06:00.836Z,98841.13
2023-01-13T13:08:40.072Z,98828.97
2023-01-13T13:11:39.643Z,98823.84
2023-01-13T13:14:13.790Z,98823.81
2023-01-13T13:16:49.735Z,98817.78
2023-01-13T13:19:22.224Z,98817.09
2023-01-13T13:22:18.102Z,98820.63
2023-01-13T13:24:50.948Z,98802.34
2023-01-13T13:27:42.708Z,98822.44
2023-01-13T13:30:18.729Z,98816.47
2023-01-13T13:33:15.926Z,98825.38
2023-01-13T13:36:00.572Z,98828.13
2023-01-13T13:39:23.062Z,98851.44
2023-01-13T13:42:09.573Z,98856.50
2023-01-13T13:44:59.656Z,98838.50
2023-01-13T13:47:35.484Z,98830.81
2023-01-13T13:50:18.232Z,98834.38
2023-01-13T13:52:54.354Z,98844.81
2023-01-13T13:55:26.491Z,98876.88
2023-01-13T13:57:55.265Z,98868.34
2023-01-13T14:00:27.116Z,98864.09
2023-01-13T14:02:55.407Z,98875.31
2023-01-13T14:05:31.394Z,98864.13
2023-01-13T14:08:02.133Z,98867.72
2023-01-13T14:10:35.151Z,98864.38
2023-01-13T14:13:40.312Z,98862.63
2023-01-13T14:16:11.766Z,98852.38
2023-01-13T14:18:46.545Z,98852.47
2023-01-13T14:21:23.224Z,98855.19
2023-01-13T14:24:14.830Z,98861.38
2023-01-13T14:26:42.280Z,98866.66
2023-01-13T14:29:16.150Z,98862.47
2023-01-13T14:31:43.923Z,98866.91
2023-01-13T14:34:31.512Z,98873.88
2023-01-13T14:36:58.509Z,98872.25
2023-01-13T14:39:33.915Z,98872.38
2023-01-13T14:42:00.935Z,98868.06
2023-01-13T14:44:35.009Z,98873.38
2023-01-13T14:47:32.276Z,98875.19
2023-01-13T14:50:11.298Z,98867.53
2023-01-13T14:52:49.227Z,98880.59
2023-01-13T14:55:25.079Z,98860.81
2023-01-13T14:57:52.533Z,98869.47
2023-01-13T15:00:21.397Z,98883.34
2023-01-13T15:03:07.334Z,98882.59
2023-01-13T15:05:36.660Z,98890.41
2023-01-13T15:08:11.692Z,98893.06
2023-01-13T15:10:47.732Z,98893.09
2023-01-13T15:13:36.736Z,98894.06
2023-01-13T15:16:06.913Z,98900.22
2023-01-13T15:18:36.058Z,98899.34
2023-01-13T15:21:03.270Z,98902.91
2023-01-13T15:23:30.148Z,98909.84
2023-01-13T15:25:59.964Z,98918.47
2023-01-13T15:28:27.558Z,98914.13
2023-01-13T15:30:55.759Z,98921.06
2023-01-13T15:33:23.217Z,98911.56
2023-01-13T15:35:51.966Z,98921.13
2023-01-13T15:38:21.162Z,98912.56
2023-01-13T15:40:49.482Z,98912.56
2023-01-13T15:43:40.063Z,98911.78
2023-01-13T15:46:19.429Z,98911.03
2023-01-13T15:48:46.532Z,98911.88
2023-01-13T15:51:21.265Z,98917.94
2023-01-13T15:53:48.217Z,98918.81
2023-01-13T15:56:24.056Z,98929.25
2023-01-13T15:58:51.071Z,98928.38
2023-01-13T16:01:18.232Z,98937.88
2023-01-13T16:03:45.310Z,98924.06
2023-01-13T16:06:28.528Z,98914.66
2023-01-13T16:08:55.498Z,98923.31
2023-01-13T16:11:22.392Z,98927.59
2023-01-13T16:13:49.305Z,98926.81
2023-01-13T16:16:25.578Z,98936.34
2023-01-13T16:18:53.762Z,98934.66
2023-01-13T16:21:21.637Z,98936.41
2023-01-13T16:23:50.112Z,98933.88
2023-01-13T16:26:26.019Z,98937.44
2023-01-13T16:28:54.542Z,98932.28
2023-01-13T16:31:32.027Z,98930.66
2023-01-13T16:34:03.455Z,98935.03
2023-01-13T16:36:32.335Z,98942.91
2023-01-13T16:38:59.481Z,98943.97
2023-01-13T16:41:26.461Z,98947.53
2023-01-13T16:43:53.968Z,98950.25
2023-01-13T16:46:24.535Z,98954.66
2023-01-13T16:48:53.868Z,98944.38
2023-01-13T16:51:21.954Z,98947.94
2023-01-13T16:53:49.502Z,98952.28
2023-01-13T16:56:20.820Z,98955.78
2023-01-13T16:58:49.976Z,98952.38
2023-01-13T17:01:24.205Z,98959.31
2023-01-13T17:03:52.812Z,98953.34
2023-01-13T17:06:29.209Z,98952.50
2023-01-13T17:09:20.129Z,98967.19
2023-01-13T17:11:47.552Z,98968.03
2023-01-13T17:14:19.215Z,98962.03
2023-01-13T17:16:47.248Z,98966.38
2023-01-13T17:19:14.609Z,98968.06
2023-01-13T17:21:42.464Z,98974.88
2023-01-13T17:24:12.670Z,98974.84
2023-01-13T17:26:42.519Z,98967.91
2023-01-13T17:29:14.283Z,98968.69
2023-01-13T17:31:41.861Z,98983.22
2023-01-13T17:34:11.666Z,98980.59
2023-01-13T17:36:41.271Z,98981.47
2023-01-13T17:39:11.350Z,98986.59
2023-01-13T17:41:40.504Z,98987.41
2023-01-13T17:44:08.040Z,98989.09
2023-01-13T17:46:36.460Z,98988.22
2023-01-13T17:49:04.349Z,98986.44
2023-01-13T17:51:31.538Z,98992.44
2023-01-13T17:53:58.508Z,98990.66
2023-01-13T17:56:25.787Z,98999.34
2023-01-13T17:58:53.351Z,98995.97
2023-01-13T18:01:21.989Z,98996.09
2023-01-13T18:03:49.720Z,98999.63
2023-01-13T18:06:19.712Z,99001.50
2023-01-13T18:08:47.210Z,99003.31
2023-01-13T18:11:18.767Z,98999.03
2023-01-13T18:14:00.396Z,98993.13
2023-01-13T18:16:30.402Z,99000.06
2023-01-13T18:19:18.667Z,98998.41
2023-01-13T18:22:05.498Z,99009.63
2023-01-13T18:24:51.386Z,99008.84
2023-01-13T18:27:26.758Z,99005.38
2023-01-13T18:29:56.409Z,99003.69
2023-01-13T18:32:26.535Z,99005.41
2023-01-13T18:35:04.794Z,99011.41
2023-01-13T18:37:33.655Z,99005.38
2023-01-13T18:40:00.605Z,99008.78
2023-01-13T18:42:46.512Z,99013.09
2023-01-13T18:45:13.481Z,99011.41
2023-01-13T18:47:42.347Z,99019.13
2023-01-13T18:50:12.303Z,99013.09
2023-01-13T18:52:40.499Z,99013.97
2023-01-13T18:55:07.908Z,99016.59
2023-01-13T18:57:40.155Z,99028.63
2023-01-13T19:00:13.323Z,99013.13
2023-01-13T19:02:40.794Z,99023.50
2023-01-13T19:05:08.089Z,99016.59
2023-01-13T19:07:36.035Z,99021.78
2023-01-13T19:10:04.644Z,99020.94
2023-01-13T19:12:31.817Z,99016.63
2023-01-13T19:14:59.515Z,99027.81
2023-01-13T19:17:33.687Z,99026.09
2023-01-13T19:20:00.915Z,99022.69
2023-01-13T19:22:31.024Z,99020.97
2023-01-13T19:24:58.604Z,99020.97
2023-01-13T19:27:27.477Z,99014.94
2023-01-13T19:29:58.113Z,99019.25
2023-01-13T19:32:25.280Z,99031.34
2023-01-13T19:34:53.274Z,99023.59
2023-01-13T19:37:20.277Z,99030.53
2023-01-13T19:39:47.172Z,99029.69
2023-01-13T19:42:32.757Z,99032.31
2023-01-13T19:45:18.355Z,99031.44
2023-01-13T19:47:46.128Z,99031.47
2023-01-13T19:50:14.066Z,99032.28
2023-01-13T19:52:42.258Z,99037.41
2023-01-13T19:55:11.702Z,99042.53
2023-01-13T19:57:40.288Z,99037.31
2023-01-13T20:00:09.078Z,99049.38
2023-01-13T20:02:49.156Z,99032.16
2023-01-13T20:05:21.404Z,99034.72
2023-01-13T20:07:49.829Z,99039.78
2023-01-13T20:10:18.843Z,99039.78
2023-01-13T20:12:46.865Z,99039.84
2023-01-13T20:15:14.632Z,99037.31
2023-01-13T20:17:41.908Z,99038.22
2023-01-13T20:20:10.765Z,99039.13
2023-01-13T20:22:41.300Z,99045.19
2023-01-13T20:25:09.358Z,99044.34
2023-01-13T20:27:36.662Z,99047.81
2023-01-13T20:30:06.291Z,99042.69
2023-01-13T20:32:33.331Z,99053.03
2023-01-13T20:35:00.233Z,99056.50
2023-01-13T20:37:27.521Z,99052.19
2023-01-13T20:39:55.352Z,99061.66
2023-01-13T20:42:41.092Z,99070.28
2023-01-13T20:45:08.912Z,99058.25
2023-01-13T20:47:47.953Z,99055.66
2023-01-13T20:50:15.629Z,99056.53
2023-01-13T20:52:42.805Z,99061.72
2023-01-13T20:55:10.421Z,99048.84
2023-01-13T20:57:37.377Z,99046.22
2023-01-13T21:00:05.536Z,99058.28
2023-01-13T21:02:32.582Z,99053.97
2023-01-13T21:04:59.615Z,99058.28
2023-01-13T21:07:26.506Z,99060.03
2023-01-13T21:09:53.502Z,99069.50
2023-01-13T21:12:38.717Z,99066.03
2023-01-13T21:15:25.020Z,99072.09
2023-01-13T21:18:10.574Z,99061.75
2023-01-13T21:20:38.799Z,99071.22
2023-01-13T21:23:06.393Z,99056.59
2023-01-13T21:25:35.536Z,99073.81
2023-01-13T21:28:11.283Z,99076.38
2023-01-13T21:30:39.153Z,99072.13
2023-01-13T21:33:06.563Z,99070.41
2023-01-13T21:35:34.086Z,99075.56
2023-01-13T21:38:01.090Z,99066.94
2023-01-13T21:40:28.061Z,99071.28
2023-01-13T21:43:13.505Z,99078.13
2023-01-13T21:45:59.307Z,99081.59
2023-01-13T21:48:26.448Z,99085.88
2023-01-13T21:50:53.532Z,99072.97
2023-01-13T21:53:20.697Z,99082.41
2023-01-13T21:55:52.198Z,99075.56
2023-01-13T21:58:19.401Z,99077.25
2023-01-13T22:00:49.290Z,99079.00
2023-01-13T22:03:18.602Z,99076.38
2023-01-13T22:05:46.344Z,99084.94
2023-01-13T22:08:13.910Z,99066.00
2023-01-13T22:10:59.710Z,99081.47
2023-01-13T22:13:47.930Z,99073.72
2023-01-13T22:16:15.479Z,99084.00
2023-01-13T22:18:42.547Z,99084.00
2023-01-13T22:21:09.636Z,99083.09
2023-01-13T22:23:36.577Z,99084.81
2023-01-13T22:26:05.098Z,99078.78
2023-01-13T22:28:40.058Z,99087.38
2023-01-13T22:31:16.210Z,99084.81
2023-01-13T22:33:43.744Z,99083.09
2023-01-13T22:36:11.122Z,99083.97
2023-01-13T22:38:38.280Z,99089.97
2023-01-13T22:41:07.024Z,99091.75
2023-01-13T22:43:34.835Z,99085.75
2023-01-13T22:46:07.732Z,99086.59
2023-01-13T22:48:35.332Z,99082.28
2023-01-13T22:51:10.634Z,99082.25
2023-01-13T22:53:38.074Z,99083.13
2023-01-13T22:56:05.790Z,99077.13
2023-01-13T22:58:32.879Z,99081.44
2023-01-13T23:01:10.703Z,99086.63
2023-01-13T23:03:37.763Z,99078.00
2023-01-13T23:06:05.823Z,99090.88
2023-01-13T23:08:34.097Z,99091.78
2023-01-13T23:11:08.877Z,99089.19
2023-01-13T23:13:37.941Z,99087.47
2023-01-13T23:16:26.908Z,99090.88
2023-01-13T23:18:54.144Z,99084.84
2023-01-13T23:21:26.676Z,99088.31
2023-01-13T23:23:54.114Z,99071.06
2023-01-13T23:26:21.641Z,99077.94
2023-01-13T23:28:48.828Z,99078.75
2023-01-13T23:31:20.760Z,99087.41
2023-01-13T23:33:48.260Z,99083.91
2023-01-13T23:36:20.349Z,99085.63
2023-01-13T23:38:47.521Z,99074.44
2023-01-13T23:41:16.364Z,99084.81
2023-01-13T23:43:43.456Z,99086.50
2023-01-13T23:46:13.081Z,99086.53
2023-01-13T23:48:40.332Z,99074.47
2023-01-13T23:51:10.641Z,99084.81
2023-01-13T23:53:43.161Z,99081.38
2023-01-13T23:56:18.704Z,99090.88
2023-01-13T23:58:46.193Z,99085.69
